createdAt,value
2023-05-19T00:03:40.782Z,50.08
2023-05-19T00:09:03.261Z,50.16
2023-05-19T00:14:24.057Z,50.35
2023-05-19T00:19:45.166Z,50.62
2023-05-19T00:25:06.398Z,50.78
2023-05-19T00:30:27.009Z,50.30
2023-05-19T00:35:47.503Z,50.92
2023-05-19T00:41:08.196Z,51.22
2023-05-19T00:46:30.728Z,51.52
2023-05-19T00:51:51.351Z,51.25
2023-05-19T00:57:13.439Z,51.52
2023-05-19T01:02:34.727Z,51.92
2023-05-19T01:07:56.532Z,51.84
2023-05-19T01:13:17.237Z,52.72
2023-05-19T01:18:47.768Z,52.86
2023-05-19T01:24:23.580Z,53.10
2023-05-19T01:30:17.897Z,53.97
2023-05-19T01:35:39.159Z,53.78
2023-05-19T01:41:01.412Z,53.65
2023-05-19T01:46:22.383Z,54.29
2023-05-19T01:51:43.052Z,54.39
2023-05-19T01:57:29.201Z,54.45
2023-05-19T02:03:19.041Z,54.76
2023-05-19T02:08:59.658Z,55.09
2023-05-19T02:14:34.043Z,55.58
2023-05-19T02:19:54.811Z,55.64
2023-05-19T02:25:15.367Z,55.77
2023-05-19T02:30:35.890Z,56.36
2023-05-19T02:35:57.441Z,56.19
2023-05-19T02:41:18.263Z,56.37
2023-05-19T02:46:38.831Z,56.81
2023-05-19T02:51:59.485Z,56.48
2023-05-19T02:57:20.008Z,57.29
2023-05-19T03:02:41.426Z,57.71
2023-05-19T03:08:03.026Z,58.36
2023-05-19T03:13:24.041Z,58.58
2023-05-19T03:18:45.983Z,59.22
2023-05-19T03:24:07.138Z,59.51
2023-05-19T03:29:28.227Z,60.42
2023-05-19T03:34:48.800Z,60.85
2023-05-19T03:40:10.615Z,61.01
2023-05-19T03:45:34.090Z,61.43
2023-05-19T03:51:05.081Z,61.03
2023-05-19T03:56:27.773Z,62.02
2023-05-19T04:01:48.772Z,62.25
2023-05-19T04:07:09.657Z,61.48
2023-05-19T04:12:30.303Z,61.15
2023-05-19T04:17:50.891Z,60.89
2023-05-19T04:23:12.477Z,61.00
2023-05-19T04:28:36.291Z,60.75
2023-05-19T04:33:57.468Z,61.12
2023-05-19T04:39:18.329Z,60.56
2023-05-19T04:44:40.578Z,60.22
2023-05-19T04:50:01.799Z,60.72
2023-05-19T04:55:23.050Z,59.76
2023-05-19T05:00:44.116Z,58.76
2023-05-19T05:06:06.566Z,58.92
2023-05-19T05:11:27.816Z,57.17
2023-05-19T05:16:50.053Z,55.89
2023-05-19T05:22:16.068Z,55.08
2023-05-19T05:27:36.777Z,54.40
2023-05-19T05:32:59.621Z,53.79
2023-05-19T05:38:27.380Z,51.22
2023-05-19T05:43:48.462Z,50.25
2023-05-19T05:49:09.199Z,49.41
2023-05-19T05:54:29.949Z,48.46
2023-05-19T05:59:51.415Z,47.49
2023-05-19T06:05:12.758Z,46.06
2023-05-19T06:10:36.853Z,44.41
2023-05-19T06:16:02.206Z,42.88
2023-05-19T06:21:32.032Z,42.56
2023-05-19T06:26:52.889Z,42.03
2023-05-19T06:32:14.110Z,40.89
2023-05-19T06:37:35.284Z,39.56
2023-05-19T06:42:57.390Z,38.64
2023-05-19T06:48:27.970Z,38.26
2023-05-19T06:53:48.983Z,38.61
2023-05-19T06:59:09.637Z,38.09
2023-05-19T07:04:31.731Z,37.35
2023-05-19T07:09:52.474Z,37.54
2023-05-19T07:15:12.960Z,37.21
2023-05-19T07:20:34.370Z,36.98
2023-05-19T07:25:58.537Z,35.81
2023-05-19T07:31:19.458Z,35.20
2023-05-19T07:36:40.159Z,33.29
2023-05-19T07:42:00.846Z,32.98
2023-05-19T07:47:21.719Z,31.72
2023-05-19T07:52:42.311Z,31.29
2023-05-19T07:58:02.795Z,31.66
2023-05-19T08:03:23.802Z,31.20
2023-05-19T08:08:44.493Z,29.75
2023-05-19T08:14:05.256Z,29.30
2023-05-19T08:19:26.935Z,28.97
2023-05-19T08:24:49.743Z,28.55
2023-05-19T08:30:10.681Z,26.43
2023-05-19T08:35:31.700Z,25.61
2023-05-19T08:40:52.296Z,26.45
2023-05-19T08:46:13.919Z,27.34
2023-05-19T08:51:41.568Z,27.06
2023-05-19T08:57:02.621Z,28.04
2023-05-19T09:02:23.787Z,27.73
2023-05-19T09:07:45.029Z,29.13
2023-05-19T09:13:06.447Z,29.65
2023-05-19T09:18:27.258Z,29.73
2023-05-19T09:23:48.787Z,29.34
2023-05-19T09:29:16.451Z,29.21
2023-05-19T09:34:41.692Z,29.06
2023-05-19T09:40:02.561Z,29.23
2023-05-19T09:45:23.214Z,27.84
2023-05-19T09:50:45.652Z,26.61
2023-05-19T09:56:06.408Z,25.89
2023-05-19T10:01:28.208Z,24.63
2023-05-19T10:06:53.619Z,25.21
2023-05-19T10:12:14.594Z,23.55
2023-05-19T10:17:36.171Z,24.35
2023-05-19T10:22:57.356Z,24.28
2023-05-19T10:28:20.582Z,23.83
2023-05-19T10:33:54.473Z,24.59
2023-05-19T10:39:21.733Z,25.54
2023-05-19T10:44:48.798Z,25.71
2023-05-19T10:50:10.176Z,24.90
2023-05-19T10:55:53.600Z,25.15
2023-05-19T11:01:22.196Z,25.86
2023-05-19T11:06:43.644Z,26.81
2023-05-19T11:12:04.940Z,27.77
2023-05-19T11:17:25.928Z,28.14
2023-05-19T11:23:01.251Z,28.62
2023-05-19T11:28:26.333Z,30.07
2023-05-19T11:33:47.200Z,30.91
2023-05-19T11:39:08.451Z,30.78
2023-05-19T11:44:28.912Z,30.66
2023-05-19T11:49:52.018Z,31.81
2023-05-19T11:55:17.031Z,32.59
2023-05-19T12:00:41.672Z,34.24
2023-05-19T12:06:02.491Z,33.75
2023-05-19T12:11:23.891Z,34.00
2023-05-19T12:16:45.013Z,33.92
2023-05-19T12:22:06.709Z,34.10
2023-05-19T12:27:27.600Z,34.80
2023-05-19T12:32:49.166Z,36.47
2023-05-19T12:38:09.867Z,38.92
2023-05-19T12:43:30.550Z,40.52
2023-05-19T12:48:51.723Z,41.41
2023-05-19T12:54:12.256Z,40.80
2023-05-19T12:59:38.826Z,40.03
2023-05-19T13:05:00.374Z,39.75
2023-05-19T13:10:21.261Z,39.81
2023-05-19T13:15:48.975Z,39.78
2023-05-19T13:21:10.266Z,39.81
2023-05-19T13:26:31.190Z,39.70
2023-05-19T13:31:52.094Z,40.55
2023-05-19T13:37:13.074Z,41.31
2023-05-19T13:42:35.114Z,41.14
2023-05-19T13:47:55.980Z,41.42
2023-05-19T13:53:16.875Z,41.68
2023-05-19T13:58:37.576Z,43.48
2023-05-19T14:03:58.574Z,44.29
2023-05-19T14:09:20.221Z,44.93
2023-05-19T14:14:41.002Z,45.16
2023-05-19T14:20:01.753Z,45.47
2023-05-19T14:25:22.615Z,44.54
2023-05-19T14:30:43.350Z,45.44
2023-05-19T14:36:05.401Z,46.90
2023-05-19T14:41:26.255Z,46.83
2023-05-19T14:46:46.855Z,47.80
2023-05-19T14:52:07.454Z,47.79
2023-05-19T14:57:28.088Z,48.45
2023-05-19T15:02:49.664Z,48.72
2023-05-19T15:08:10.842Z,48.62
2023-05-19T15:13:31.782Z,49.25
2023-05-19T15:18:54.556Z,49.55
2023-05-19T15:24:15.534Z,49.51
2023-05-19T15:29:36.584Z,49.21
2023-05-19T15:34:57.680Z,48.67
2023-05-19T15:40:18.687Z,48.59
2023-05-19T15:45:39.465Z,48.96
2023-05-19T15:51:00.632Z,49.50
2023-05-19T15:56:21.699Z,49.60
2023-05-19T16:01:42.385Z,49.53
2023-05-19T16:07:02.960Z,50.10
2023-05-19T16:12:27.453Z,50.38
2023-05-19T16:17:48.290Z,50.87
2023-05-19T16:23:08.774Z,51.31
2023-05-19T16:28:29.413Z,51.32
2023-05-19T16:33:49.956Z,51.83
2023-05-19T16:39:10.760Z,52.64
2023-05-19T16:44:31.753Z,53.65
2023-05-19T16:49:52.266Z,53.31
2023-05-19T16:55:17.280Z,54.02
2023-05-19T17:00:38.196Z,54.45
2023-05-19T17:05:58.757Z,55.58
2023-05-19T17:11:19.375Z,55.90
2023-05-19T17:16:40.090Z,55.99
2023-05-19T17:22:00.867Z,56.76
2023-05-19T17:27:21.482Z,57.40
2023-05-19T17:32:42.215Z,57.85
2023-05-19T17:38:02.519Z,58.57
2023-05-19T17:43:23.461Z,59.20
2023-05-19T17:48:44.177Z,59.19
2023-05-19T17:54:05.467Z,59.85
2023-05-19T17:59:26.287Z,59.91
2023-05-19T18:04:48.514Z,60.54
2023-05-19T18:10:09.896Z,60.52
2023-05-19T18:15:30.979Z,60.63
2023-05-19T18:20:51.996Z,61.25
2023-05-19T18:26:16.198Z,61.76
2023-05-19T18:31:37.143Z,61.92
2023-05-19T18:36:57.666Z,62.28
2023-05-19T18:42:25.558Z,62.72
2023-05-19T18:47:46.444Z,62.33
2023-05-19T18:53:07.235Z,63.05
2023-05-19T18:58:27.741Z,63.02
2023-05-19T19:03:49.415Z,63.18
2023-05-19T19:09:10.299Z,63.67
2023-05-19T19:14:31.059Z,64.40
2023-05-19T19:19:51.694Z,64.46
2023-05-19T19:25:12.263Z,64.71
2023-05-19T19:30:33.164Z,65.29
2023-05-19T19:35:54.227Z,65.46
2023-05-19T19:41:14.720Z,66.01
2023-05-19T19:46:35.419Z,66.15
2023-05-19T19:51:55.900Z,66.41
2023-05-19T19:57:19.336Z,66.63
2023-05-19T20:02:55.343Z,66.57
2023-05-19T20:08:21.877Z,67.08
2023-05-19T20:13:42.950Z,67.43
2023-05-19T20:19:03.476Z,67.65
2023-05-19T20:24:24.069Z,67.91
2023-05-19T20:29:45.500Z,69.21
2023-05-19T20:35:06.882Z,68.93
2023-05-19T20:40:28.082Z,70.08
2023-05-19T20:45:48.959Z,71.09
2023-05-19T20:51:09.802Z,71.77
2023-05-19T20:56:30.383Z,71.98
2023-05-19T21:01:51.277Z,72.49
2023-05-19T21:07:12.124Z,73.45
2023-05-19T21:12:34.250Z,72.83
2023-05-19T21:17:55.509Z,73.97
2023-05-19T21:23:16.034Z,74.41
2023-05-19T21:28:36.737Z,75.05
2023-05-19T21:33:57.444Z,75.67
2023-05-19T21:39:18.450Z,76.11
2023-05-19T21:44:39.313Z,76.55
2023-05-19T21:49:59.883Z,77.69
2023-05-19T21:55:22.025Z,78.20
2023-05-19T22:00:43.405Z,78.91
2023-05-19T22:06:06.396Z,79.94
2023-05-19T22:11:27.034Z,80.37
2023-05-19T22:16:47.774Z,80.82
2023-05-19T22:22:14.218Z,81.51
2023-05-19T22:27:35.373Z,81.89
2023-05-19T22:32:56.074Z,81.71
2023-05-19T22:38:16.659Z,82.34
2023-05-19T22:43:37.433Z,82.24
2023-05-19T22:48:58.021Z,82.48
2023-05-19T22:54:18.925Z,83.47
2023-05-19T22:59:40.004Z,83.30
2023-05-19T23:05:00.773Z,82.92
2023-05-19T23:10:21.308Z,82.86
2023-05-19T23:15:41.919Z,82.95
2023-05-19T23:21:02.443Z,83.28
2023-05-19T23:26:23.370Z,83.76
2023-05-19T23:31:44.250Z,84.22
2023-05-19T23:37:05.561Z,84.39
2023-05-19T23:42:26.322Z,84.44
2023-05-19T23:47:47.110Z,84.32
2023-05-19T23:53:08.280Z,84.34
2023-05-19T23:58:28.748Z,84.22
